Date,TemperatureHighF,TemperatureAvgF,TemperatureLowF,DewpointHighF,DewpointAvgF,DewpointLowF,HumidityHigh,HumidityAvg,HumidityLow,PressureMaxIn,PressureMinIn,WindSpeedMaxMPH,WindSpeedAvgMPH,GustSpeedMaxMPH,PrecipitationSumIn
2013-5-1,90.8,72.1,54.8,46.3,39.7,32.3,55,34,17,30.11,29.84,11,1,11,0.00
2013-5-2,96.0,77.8,61.5,46.0,39.6,30.0,39,27,16,30.19,30.09,10,1,10,0.00
2013-5-3,97.5,78.5,60.9,50.2,41.4,33.6,46,29,15,30.11,29.84,11,1,11,0.00
2013-5-4,95.7,76.7,61.8,47.5,40.3,35.0,46,29,16,29.85,29.65,11,1,11,0.00
2013-5-5,77.9,66.2,59.1,45.7,39.0,28.1,50,37,28,29.86,29.67,11,1,12,0.00
2013-5-6,77.7,63.7,52.1,46.3,43.5,40.4,78,50,32,29.99,29.86,11,1,11,0.25
2013-5-7,68.7,57.7,51.4,54.6,49.3,45.5,86,74,56,30.04,29.96,10,0,10,0.08
2013-5-8,72.5,60.8,52.7,56.9,51.0,47.1,87,72,49,30.11,30.03,7,0,9,0.04
2013-5-9,83.4,67.1,50.9,57.3,51.5,45.4,82,60,38,30.11,30.06,10,1,107,0.00
2013-5-10,91.9,73.3,55.9,58.6,54.1,48.7,78,54,32,30.16,30.08,11,1,11,0.00
2013-5-11,99.1,80.1,62.7,62.8,56.1,52.1,70,47,26,30.16,30.08,9,1,9,0.00
2013-5-12,103.8,83.7,66.7,59.7,50.6,41.9,55,35,18,30.15,30.03,13,2,13,0.00
2013-5-13,103.2,85.8,67.2,56.7,49.2,43.5,46,30,19,30.10,29.97,8,2,8,0.00
2013-5-14,69.6,67.4,66.2,50.3,49.3,48.3,56,52,48,29.99,29.97,3,0,3,0.00
2013-5-15,95.1,75.5,59.3,56.1,47.1,38.0,62,40,19,30.03,29.96,10,1,10,0.00
2013-5-16,72.3,63.7,53.4,48.6,44.8,38.7,64,51,42,30.02,29.95,5,0,5,0.00
2013-5-17,84.0,67.3,51.0,53.3,41.9,30.6,79,45,24,30.03,29.93,12,1,12,0.00
2013-5-18,87.9,68.4,49.6,46.2,39.2,31.0,59,37,20,30.10,30.01,12,1,14,0.00
2013-5-19,91.7,72.0,53.2,49.4,41.5,35.0,56,36,22,30.07,29.97,16,2,16,0.00
2013-5-20,95.1,76.4,58.2,49.4,41.6,33.6,47,31,20,30.04,29.96,9,1,9,0.00
2013-5-21,94.8,76.4,57.3,49.6,39.3,33.2,45,29,14,29.97,29.88,9,2,9,0.00
2013-5-22,78.2,61.3,43.8,45.3,32.4,17.2,74,39,18,29.94,29.86,12,1,12,0.00
2013-5-23,81.3,62.2,44.2,38.4,29.5,21.9,52,31,17,29.97,29.88,15,1,15,0.00
2013-5-24,86.7,66.9,47.6,40.7,33.5,25.5,50,31,19,29.99,29.92,9,1,9,0.00
2013-5-25,87.6,68.9,51.6,42.6,35.4,29.1,48,31,19,30.00,29.94,10,1,10,0.00
2013-5-26,84.9,67.8,50.0,48.2,41.1,33.3,55,40,25,30.07,29.99,14,1,14,0.00
2013-5-27,86.3,66.0,50.1,50.0,44.7,39.9,69,49,23,30.07,29.98,13,1,13,0.00
2013-5-28,84.5,68.6,56.1,57.3,49.8,45.4,73,54,32,30.00,29.89,13,2,13,0.00
2013-5-29,88.5,70.4,57.3,54.8,48.8,42.3,67,49,32,29.95,29.87,13,2,13,0.00
2013-5-30,92.1,73.5,55.9,54.4,46.0,38.3,68,41,21,29.98,29.90,12,2,12,0.00
2013-5-31,96.0,77.8,59.0,50.7,44.4,38.1,52,33,20,30.02,29.94,10,1,10,0.00